WXM80 ListenWXM80 Stop

You find our weather info also at:

UK Metoffice

WeatherCloud

Weather Underground

Northeastern Weather Network

AWEKAS

Citizen Weather Observer Program (CWOP)

HAMweather, WeatherForYou, PWS Weather


Weather Underground History page Text

Daily Summary for February 10, 2017 Units:  Both    English   Metric
« Previous Day
Next Day »
Daily Weekly Monthly Yearly Custom
  High: Low: Average:
Temperature: 33.4 °F /  0.8 °C 18.4 °F /  -7.6 °C 26.3 °F /  -3.2 °C
Dew Point: 22.8 °F /  -5.1 °C 10.2 °F /  -12.1 °C 17.7 °F /  -7.9 °C
Humidity: 81 % 58 % 70 %
Wind Speed: 15.0 mph /  24.1 km/h - 5.4 mph /  8.7 km/h
Wind Gust: 23.0 mph /  37 km/h - -
Wind:- - West
Pressure: 30.19 in /  1022.2 hPa 30.02 in /  1016.5 hPa -
Precipitation: 0.00 in /  0 mm    
Historical Graphs
 
 
Tabular Data for February 10, 2017
Time Temperature Dew Point Pressure Wind Wind Speed Wind Gust Humidity Rainfall Rate (Hourly)
00:03 18.5 °F /  -7.5 °C 10.3 °F /  -12.1 °C 30.02 in /  1016.5 hPa West 5.3 mph /  8.5 km/h 11.5 mph /  18.5 km/h 70 % 0.00 in /  0 mm
00:08 18.5 °F /  -7.5 °C 10.3 °F /  -12.1 °C 30.03 in /  1016.8 hPa WNW 6.0 mph /  9.7 km/h 14.0 mph /  22.5 km/h 70 % 0.00 in /  0 mm
00:13 18.5 °F /  -7.5 °C 10.6 °F /  -11.9 °C 30.03 in /  1016.8 hPa NW 7.0 mph /  11.3 km/h 13.0 mph /  20.9 km/h 71 % 0.00 in /  0 mm
00:18 18.4 °F /  -7.6 °C 10.2 °F /  -12.1 °C 30.03 in /  1016.8 hPa NW 9.0 mph /  14.5 km/h 17.0 mph /  27.4 km/h 70 % 0.00 in /  0 mm
00:23 18.5 °F /  -7.5 °C 10.7 °F /  -11.8 °C 30.03 in /  1016.8 hPa WNW 7.0 mph /  11.3 km/h 16.0 mph /  25.7 km/h 71 % 0.00 in /  0 mm
00:28 18.5 °F /  -7.5 °C 11.0 °F /  -11.7 °C 30.03 in /  1016.8 hPa WNW 6.0 mph /  9.7 km/h 13.0 mph /  20.9 km/h 72 % 0.00 in /  0 mm
00:33 18.5 °F /  -7.5 °C 11.0 °F /  -11.7 °C 30.03 in /  1016.8 hPa West 6.0 mph /  9.7 km/h 18.0 mph /  29 km/h 72 % 0.00 in /  0 mm
00:38 18.5 °F /  -7.5 °C 11.3 °F /  -11.5 °C 30.03 in /  1016.8 hPa West 8.0 mph /  12.9 km/h 18.0 mph /  29 km/h 73 % 0.00 in /  0 mm
00:43 18.5 °F /  -7.5 °C 11.3 °F /  -11.5 °C 30.03 in /  1016.8 hPa WSW 3.5 mph /  5.6 km/h 17.3 mph /  27.8 km/h 73 % 0.00 in /  0 mm
00:48 18.5 °F /  -7.5 °C 11.3 °F /  -11.5 °C 30.03 in /  1016.8 hPa NW 8.0 mph /  12.9 km/h 16.1 mph /  25.9 km/h 73 % 0.00 in /  0 mm
00:54 18.6 °F /  -7.4 °C 11.4 °F /  -11.4 °C 30.04 in /  1017.2 hPa West 4.9 mph /  7.9 km/h 11.0 mph /  17.7 km/h 73 % 0.00 in /  0 mm
00:59 18.6 °F /  -7.4 °C 11.4 °F /  -11.4 °C 30.04 in /  1017.2 hPa WNW 8.0 mph /  12.9 km/h 16.1 mph /  25.9 km/h 73 % 0.00 in /  0 mm
01:04 18.7 °F /  -7.4 °C 11.8 °F /  -11.2 °C 30.04 in /  1017.2 hPa WNW 9.1 mph /  14.6 km/h 11.5 mph /  18.5 km/h 74 % 0.00 in /  0 mm
01:09 18.8 °F /  -7.3 °C 12.2 °F /  -11 °C 30.04 in /  1017.2 hPa WNW 9.6 mph /  15.4 km/h 14.0 mph /  22.5 km/h 75 % 0.00 in /  0 mm
01:14 18.9 °F /  -7.3 °C 12.0 °F /  -11.1 °C 30.04 in /  1017.2 hPa WNW 7.8 mph /  12.6 km/h 13.0 mph /  20.9 km/h 74 % 0.00 in /  0 mm
01:19 19.0 °F /  -7.2 °C 12.1 °F /  -11.1 °C 30.04 in /  1017.2 hPa WSW 10.9 mph /  17.5 km/h 17.3 mph /  27.8 km/h 74 % 0.00 in /  0 mm
01:24 19.0 °F /  -7.2 °C 12.4 °F /  -10.9 °C 30.05 in /  1017.5 hPa North 7.2 mph /  11.6 km/h 9.2 mph /  14.8 km/h 75 % 0.00 in /  0 mm
01:29 19.0 °F /  -7.2 °C 12.4 °F /  -10.9 °C 30.04 in /  1017.2 hPa WNW 2.1 mph /  3.4 km/h 6.9 mph /  11.1 km/h 75 % 0.00 in /  0 mm
01:34 19.0 °F /  -7.2 °C 12.7 °F /  -10.7 °C 30.04 in /  1017.2 hPa NW 8.4 mph /  13.5 km/h 11.5 mph /  18.5 km/h 76 % 0.00 in /  0 mm
01:39 19.0 °F /  -7.2 °C 12.4 °F /  -10.9 °C 30.04 in /  1017.2 hPa West 6.3 mph /  10.1 km/h 11.5 mph /  18.5 km/h 75 % 0.00 in /  0 mm
01:44 18.9 °F /  -7.3 °C 12.9 °F /  -10.6 °C 30.05 in /  1017.5 hPa SW 7.8 mph /  12.6 km/h 13.0 mph /  20.9 km/h 77 % 0.00 in /  0 mm
01:49 19.0 °F /  -7.2 °C 13.0 °F /  -10.6 °C 30.05 in /  1017.5 hPa WSW 7.2 mph /  11.6 km/h 15.0 mph /  24.1 km/h 77 % 0.00 in /  0 mm
01:54 19.1 °F /  -7.2 °C 13.4 °F /  -10.3 °C 30.05 in /  1017.5 hPa West 9.6 mph /  15.4 km/h 12.7 mph /  20.4 km/h 78 % 0.00 in /  0 mm
01:59 19.1 °F /  -7.2 °C 13.4 °F /  -10.3 °C 30.05 in /  1017.5 hPa West 6.2 mph /  10 km/h 12.7 mph /  20.4 km/h 78 % 0.00 in /  0 mm
02:04 19.1 °F /  -7.2 °C 13.7 °F /  -10.2 °C 30.05 in /  1017.5 hPa WNW 7.2 mph /  11.6 km/h 13.0 mph /  20.9 km/h 79 % 0.00 in /  0 mm
02:09 19.2 °F /  -7.1 °C 13.8 °F /  -10.1 °C 30.05 in /  1017.5 hPa West 7.6 mph /  12.2 km/h 15.0 mph /  24.1 km/h 79 % 0.00 in /  0 mm
02:14 19.2 °F /  -7.1 °C 14.0 °F /  -10 °C 30.05 in /  1017.5 hPa WSW 8.5 mph /  13.7 km/h 13.8 mph /  22.2 km/h 80 % 0.00 in /  0 mm
02:19 19.2 °F /  -7.1 °C 13.8 °F /  -10.1 °C 30.05 in /  1017.5 hPa West 7.3 mph /  11.7 km/h 11.5 mph /  18.5 km/h 79 % 0.00 in /  0 mm
02:24 19.3 °F /  -7.1 °C 13.6 °F /  -10.2 °C 30.05 in /  1017.5 hPa SW 5.8 mph /  9.3 km/h 9.2 mph /  14.8 km/h 78 % 0.00 in /  0 mm
02:29 19.2 °F /  -7.1 °C 13.5 °F /  -10.3 °C 30.05 in /  1017.5 hPa South 7.6 mph /  12.2 km/h 12.0 mph /  19.3 km/h 78 % 0.00 in /  0 mm
02:34 19.2 °F /  -7.1 °C 13.2 °F /  -10.4 °C 30.06 in /  1017.8 hPa SW 5.7 mph /  9.2 km/h 11.5 mph /  18.5 km/h 77 % 0.00 in /  0 mm
02:39 19.2 °F /  -7.1 °C 12.9 °F /  -10.6 °C 30.05 in /  1017.5 hPa WNW 4.0 mph /  6.4 km/h 11.0 mph /  17.7 km/h 76 % 0.00 in /  0 mm
02:44 19.3 °F /  -7.1 °C 13.0 °F /  -10.6 °C 30.06 in /  1017.8 hPa SW 6.7 mph /  10.8 km/h 10.0 mph /  16.1 km/h 76 % 0.00 in /  0 mm
02:49 19.3 °F /  -7.1 °C 13.0 °F /  -10.6 °C 30.06 in /  1017.8 hPa WSW 10.7 mph /  17.2 km/h 16.1 mph /  25.9 km/h 76 % 0.00 in /  0 mm
02:54 19.4 °F /  -7 °C 12.8 °F /  -10.7 °C 30.06 in /  1017.8 hPa NW 7.2 mph /  11.6 km/h 13.8 mph /  22.2 km/h 75 % 0.00 in /  0 mm
02:59 19.4 °F /  -7 °C 12.8 °F /  -10.7 °C 30.06 in /  1017.8 hPa West 1.0 mph /  1.6 km/h 1.2 mph /  1.9 km/h 75 % 0.00 in /  0 mm
03:05 19.5 °F /  -6.9 °C 12.6 °F /  -10.8 °C 30.06 in /  1017.8 hPa West 4.4 mph /  7.1 km/h 6.0 mph /  9.7 km/h 74 % 0.00 in /  0 mm
03:10 19.5 °F /  -6.9 °C 12.9 °F /  -10.6 °C 30.06 in /  1017.8 hPa West 1.5 mph /  2.4 km/h 4.6 mph /  7.4 km/h 75 % 0.00 in /  0 mm
03:15 19.5 °F /  -6.9 °C 13.2 °F /  -10.4 °C 30.06 in /  1017.8 hPa SW 4.3 mph /  6.9 km/h 10.0 mph /  16.1 km/h 76 % 0.00 in /  0 mm
03:20 19.4 °F /  -7 °C 13.1 °F /  -10.5 °C 30.07 in /  1018.2 hPa West 2.0 mph /  3.2 km/h 3.5 mph /  5.6 km/h 76 % 0.00 in /  0 mm
03:25 19.4 °F /  -7 °C 13.1 °F /  -10.5 °C 30.07 in /  1018.2 hPa West 5.3 mph /  8.5 km/h 12.0 mph /  19.3 km/h 76 % 0.00 in /  0 mm
03:30 19.4 °F /  -7 °C 13.1 °F /  -10.5 °C 30.07 in /  1018.2 hPa West 4.1 mph /  6.6 km/h 5.8 mph /  9.3 km/h 76 % 0.00 in /  0 mm
03:35 19.5 °F /  -6.9 °C 13.2 °F /  -10.4 °C 30.07 in /  1018.2 hPa NW 5.1 mph /  8.2 km/h 7.0 mph /  11.3 km/h 76 % 0.00 in /  0 mm
03:40 19.5 °F /  -6.9 °C 13.2 °F /  -10.4 °C 30.08 in /  1018.5 hPa WNW 3.6 mph /  5.8 km/h 8.1 mph /  13 km/h 76 % 0.00 in /  0 mm
03:45 19.6 °F /  -6.9 °C 13.3 °F /  -10.4 °C 30.08 in /  1018.5 hPa SW 11.1 mph /  17.9 km/h 19.0 mph /  30.6 km/h 76 % 0.00 in /  0 mm
03:50 19.7 °F /  -6.8 °C 13.1 °F /  -10.5 °C 30.08 in /  1018.5 hPa West 7.5 mph /  12.1 km/h 12.7 mph /  20.4 km/h 75 % 0.00 in /  0 mm
03:55 19.8 °F /  -6.8 °C 12.8 °F /  -10.7 °C 30.09 in /  1018.8 hPa West 9.3 mph /  15 km/h 13.0 mph /  20.9 km/h 74 % 0.00 in /  0 mm
04:00 19.8 °F /  -6.8 °C 12.8 °F /  -10.7 °C 30.09 in /  1018.8 hPa SW 7.1 mph /  11.4 km/h 15.0 mph /  24.1 km/h 74 % 0.00 in /  0 mm
04:05 19.9 °F /  -6.7 °C 12.9 °F /  -10.6 °C 30.09 in /  1018.8 hPa WNW 6.7 mph /  10.8 km/h 11.5 mph /  18.5 km/h 74 % 0.00 in /  0 mm
04:10 19.9 °F /  -6.7 °C 12.9 °F /  -10.6 °C 30.09 in /  1018.8 hPa West 8.4 mph /  13.5 km/h 16.1 mph /  25.9 km/h 74 % 0.00 in /  0 mm
04:15 20.0 °F /  -6.7 °C 13.0 °F /  -10.6 °C 30.09 in /  1018.8 hPa WNW 8.1 mph /  13 km/h 11.5 mph /  18.5 km/h 74 % 0.00 in /  0 mm
04:20 20.1 °F /  -6.6 °C 13.1 °F /  -10.5 °C 30.09 in /  1018.8 hPa WSW 5.0 mph /  8 km/h 9.2 mph /  14.8 km/h 74 % 0.00 in /  0 mm
04:25 20.2 °F /  -6.6 °C 13.2 °F /  -10.4 °C 30.10 in /  1019.2 hPa WSW 5.0 mph /  8 km/h 5.0 mph /  8 km/h 74 % 0.00 in /  0 mm
04:30 20.2 °F /  -6.6 °C 12.9 °F /  -10.6 °C 30.10 in /  1019.2 hPa WNW 11.1 mph /  17.9 km/h 13.8 mph /  22.2 km/h 73 % 0.00 in /  0 mm
04:35 20.3 °F /  -6.5 °C 13.3 °F /  -10.4 °C 30.10 in /  1019.2 hPa WNW 7.6 mph /  12.2 km/h 13.8 mph /  22.2 km/h 74 % 0.00 in /  0 mm
04:40 20.3 °F /  -6.5 °C 13.0 °F /  -10.6 °C 30.11 in /  1019.5 hPa NW 7.1 mph /  11.4 km/h 11.5 mph /  18.5 km/h 73 % 0.00 in /  0 mm
04:45 20.4 °F /  -6.4 °C 13.4 °F /  -10.3 °C 30.11 in /  1019.5 hPa West 3.6 mph /  5.8 km/h 9.2 mph /  14.8 km/h 74 % 0.00 in /  0 mm
04:50 20.3 °F /  -6.5 °C 13.6 °F /  -10.2 °C 30.11 in /  1019.5 hPa WSW 9.0 mph /  14.5 km/h 13.8 mph /  22.2 km/h 75 % 0.00 in /  0 mm
04:55 20.4 °F /  -6.4 °C 13.1 °F /  -10.5 °C 30.11 in /  1019.5 hPa West 2.0 mph /  3.2 km/h 8.1 mph /  13 km/h 73 % 0.00 in /  0 mm
04:56 20.3 °F /  -6.5 °C 13.0 °F /  -10.6 °C 30.11 in /  1019.5 hPa West 3.7 mph /  6 km/h 9.2 mph /  14.8 km/h 73 % 0.00 in /  0 mm
05:01 20.3 °F /  -6.5 °C 13.3 °F /  -10.4 °C 30.11 in /  1019.5 hPa West 9.8 mph /  15.8 km/h 13.8 mph /  22.2 km/h 74 % 0.00 in /  0 mm
05:06 20.3 °F /  -6.5 °C 13.3 °F /  -10.4 °C 30.11 in /  1019.5 hPa WSW 6.7 mph /  10.8 km/h 10.4 mph /  16.7 km/h 74 % 0.00 in /  0 mm
05:11 20.3 °F /  -6.5 °C 13.3 °F /  -10.4 °C 30.11 in /  1019.5 hPa West 6.5 mph /  10.5 km/h 11.5 mph /  18.5 km/h 74 % 0.00 in /  0 mm
05:17 20.4 °F /  -6.4 °C 13.4 °F /  -10.3 °C 30.12 in /  1019.9 hPa West 7.1 mph /  11.4 km/h 13.8 mph /  22.2 km/h 74 % 0.00 in /  0 mm
05:22 20.5 °F /  -6.4 °C 13.5 °F /  -10.3 °C 30.12 in /  1019.9 hPa SW 7.8 mph /  12.6 km/h 13.8 mph /  22.2 km/h 74 % 0.00 in /  0 mm
05:27 20.6 °F /  -6.3 °C 13.6 °F /  -10.2 °C 30.12 in /  1019.9 hPa West 7.3 mph /  11.7 km/h 11.5 mph /  18.5 km/h 74 % 0.00 in /  0 mm
05:32 20.7 °F /  -6.3 °C 13.7 °F /  -10.2 °C 30.12 in /  1019.9 hPa WNW 5.6 mph /  9 km/h 16.1 mph /  25.9 km/h 74 % 0.00 in /  0 mm
05:37 20.7 °F /  -6.3 °C 13.4 °F /  -10.3 °C 30.12 in /  1019.9 hPa WNW 6.2 mph /  10 km/h 13.8 mph /  22.2 km/h 73 % 0.00 in /  0 mm
05:42 20.8 °F /  -6.2 °C 13.5 °F /  -10.3 °C 30.13 in /  1020.2 hPa WSW 7.0 mph /  11.3 km/h 15.0 mph /  24.1 km/h 73 % 0.00 in /  0 mm
05:47 20.9 °F /  -6.2 °C 13.6 °F /  -10.2 °C 30.13 in /  1020.2 hPa West 7.5 mph /  12.1 km/h 11.5 mph /  18.5 km/h 73 % 0.00 in /  0 mm
05:52 21.0 °F /  -6.1 °C 13.7 °F /  -10.2 °C 30.14 in /  1020.5 hPa WSW 8.1 mph /  13 km/h 16.0 mph /  25.7 km/h 73 % 0.00 in /  0 mm
05:57 21.1 °F /  -6.1 °C 13.5 °F /  -10.3 °C 30.14 in /  1020.5 hPa WSW 6.5 mph /  10.5 km/h 10.0 mph /  16.1 km/h 72 % 0.00 in /  0 mm
06:02 21.1 °F /  -6.1 °C 13.5 °F /  -10.3 °C 30.14 in /  1020.5 hPa WSW 6.4 mph /  10.3 km/h 13.8 mph /  22.2 km/h 72 % 0.00 in /  0 mm
06:07 21.1 °F /  -6.1 °C 13.5 °F /  -10.3 °C 30.14 in /  1020.5 hPa West 15.0 mph /  24.1 km/h 15.0 mph /  24.1 km/h 72 % 0.00 in /  0 mm
06:12 21.2 °F /  -6 °C 13.9 °F /  -10.1 °C 30.14 in /  1020.5 hPa West 14.8 mph /  23.8 km/h 23.0 mph /  37 km/h 73 % 0.00 in /  0 mm
06:17 21.2 °F /  -6 °C 13.9 °F /  -10.1 °C 30.15 in /  1020.9 hPa WNW 10.4 mph /  16.7 km/h 11.5 mph /  18.5 km/h 73 % 0.00 in /  0 mm
06:22 21.2 °F /  -6 °C 14.2 °F /  -9.9 °C 30.15 in /  1020.9 hPa WSW 4.8 mph /  7.7 km/h 7.0 mph /  11.3 km/h 74 % 0.00 in /  0 mm
06:27 21.3 °F /  -5.9 °C 14.0 °F /  -10 °C 30.15 in /  1020.9 hPa WSW 7.6 mph /  12.2 km/h 18.0 mph /  29 km/h 73 % 0.00 in /  0 mm
06:32 21.3 °F /  -5.9 °C 13.7 °F /  -10.2 °C 30.15 in /  1020.9 hPa WSW 7.5 mph /  12.1 km/h 11.5 mph /  18.5 km/h 72 % 0.00 in /  0 mm
06:37 21.3 °F /  -5.9 °C 14.0 °F /  -10 °C 30.15 in /  1020.9 hPa WSW 4.8 mph /  7.7 km/h 10.4 mph /  16.7 km/h 73 % 0.00 in /  0 mm
06:42 21.4 °F /  -5.9 °C 13.8 °F /  -10.1 °C 30.15 in /  1020.9 hPa SW 9.7 mph /  15.6 km/h 12.7 mph /  20.4 km/h 72 % 0.00 in /  0 mm
06:47 21.4 °F /  -5.9 °C 14.1 °F /  -9.9 °C 30.16 in /  1021.2 hPa West 7.3 mph /  11.7 km/h 18.4 mph /  29.6 km/h 73 % 0.00 in /  0 mm
06:52 21.4 °F /  -5.9 °C 14.1 °F /  -9.9 °C 30.16 in /  1021.2 hPa West 7.7 mph /  12.4 km/h 12.7 mph /  20.4 km/h 73 % 0.00 in /  0 mm
06:57 21.5 °F /  -5.8 °C 13.9 °F /  -10.1 °C 30.16 in /  1021.2 hPa West 5.2 mph /  8.4 km/h 15.0 mph /  24.1 km/h 72 % 0.00 in /  0 mm
07:02 21.5 °F /  -5.8 °C 14.2 °F /  -9.9 °C 30.16 in /  1021.2 hPa WNW 7.0 mph /  11.3 km/h 13.8 mph /  22.2 km/h 73 % 0.00 in /  0 mm
07:07 21.6 °F /  -5.8 °C 14.3 °F /  -9.8 °C 30.16 in /  1021.2 hPa West 4.2 mph /  6.8 km/h 11.5 mph /  18.5 km/h 73 % 0.00 in /  0 mm
07:12 21.6 °F /  -5.8 °C 14.3 °F /  -9.8 °C 30.16 in /  1021.2 hPa WSW 7.6 mph /  12.2 km/h 12.0 mph /  19.3 km/h 73 % 0.00 in /  0 mm
07:17 21.7 °F /  -5.7 °C 14.1 °F /  -9.9 °C 30.16 in /  1021.2 hPa WSW 12.0 mph /  19.3 km/h 18.4 mph /  29.6 km/h 72 % 0.00 in /  0 mm
07:23 21.8 °F /  -5.7 °C 14.2 °F /  -9.9 °C 30.16 in /  1021.2 hPa WSW 7.6 mph /  12.2 km/h 11.5 mph /  18.5 km/h 72 % 0.00 in /  0 mm
07:28 21.9 °F /  -5.6 °C 14.6 °F /  -9.7 °C 30.17 in /  1021.6 hPa West 7.1 mph /  11.4 km/h 15.0 mph /  24.1 km/h 73 % 0.00 in /  0 mm
07:33 21.9 °F /  -5.6 °C 14.6 °F /  -9.7 °C 30.17 in /  1021.6 hPa West 2.8 mph /  4.5 km/h 10.0 mph /  16.1 km/h 73 % 0.00 in /  0 mm
07:38 22.0 °F /  -5.6 °C 14.3 °F /  -9.8 °C 30.16 in /  1021.2 hPa WNW 7.3 mph /  11.7 km/h 13.8 mph /  22.2 km/h 72 % 0.00 in /  0 mm
07:43 22.1 °F /  -5.5 °C 15.1 °F /  -9.4 °C 30.16 in /  1021.2 hPa NW 9.8 mph /  15.8 km/h 18.4 mph /  29.6 km/h 74 % 0.00 in /  0 mm
07:48 22.2 °F /  -5.4 °C 14.9 °F /  -9.5 °C 30.16 in /  1021.2 hPa West 11.8 mph /  19 km/h 18.4 mph /  29.6 km/h 73 % 0.00 in /  0 mm
07:50 22.2 °F /  -5.4 °C 14.9 °F /  -9.5 °C 30.16 in /  1021.2 hPa SW 7.3 mph /  11.7 km/h 12.7 mph /  20.4 km/h 73 % 0.00 in /  0 mm
07:55 22.3 °F /  -5.4 °C 15.0 °F /  -9.4 °C 30.16 in /  1021.2 hPa WNW 8.1 mph /  13 km/h 12.7 mph /  20.4 km/h 73 % 0.00 in /  0 mm
08:00 22.4 °F /  -5.3 °C 14.7 °F /  -9.6 °C 30.16 in /  1021.2 hPa West 5.6 mph /  9 km/h 10.4 mph /  16.7 km/h 72 % 0.00 in /  0 mm
08:05 22.5 °F /  -5.3 °C 14.8 °F /  -9.6 °C 30.17 in /  1021.6 hPa SW 6.8 mph /  10.9 km/h 13.8 mph /  22.2 km/h 72 % 0.00 in /  0 mm
08:10 22.7 °F /  -5.2 °C 15.0 °F /  -9.4 °C 30.16 in /  1021.2 hPa SW 10.8 mph /  17.4 km/h 12.7 mph /  20.4 km/h 72 % 0.00 in /  0 mm
08:15 23.0 °F /  -5 °C 15.3 °F /  -9.3 °C 30.18 in /  1021.9 hPa WNW 5.2 mph /  8.4 km/h 11.5 mph /  18.5 km/h 72 % 0.00 in /  0 mm
08:20 23.3 °F /  -4.8 °C 15.6 °F /  -9.1 °C 30.18 in /  1021.9 hPa West 3.8 mph /  6.1 km/h 11.5 mph /  18.5 km/h 72 % 0.00 in /  0 mm
08:25 23.6 °F /  -4.7 °C 15.6 °F /  -9.1 °C 30.18 in /  1021.9 hPa WNW 4.6 mph /  7.4 km/h 11.5 mph /  18.5 km/h 71 % 0.00 in /  0 mm
08:30 23.8 °F /  -4.6 °C 15.8 °F /  -9 °C 30.18 in /  1021.9 hPa WNW 11.5 mph /  18.5 km/h 16.1 mph /  25.9 km/h 71 % 0.00 in /  0 mm
08:36 24.0 °F /  -4.4 °C 15.3 °F /  -9.3 °C 30.18 in /  1021.9 hPa WSW 9.3 mph /  15 km/h 15.0 mph /  24.1 km/h 69 % 0.00 in /  0 mm
08:41 24.3 °F /  -4.3 °C 15.6 °F /  -9.1 °C 30.18 in /  1021.9 hPa NW 5.6 mph /  9 km/h 15.0 mph /  24.1 km/h 69 % 0.00 in /  0 mm
08:46 24.6 °F /  -4.1 °C 15.9 °F /  -8.9 °C 30.18 in /  1021.9 hPa West 6.9 mph /  11.1 km/h 17.3 mph /  27.8 km/h 69 % 0.00 in /  0 mm
08:51 24.9 °F /  -3.9 °C 16.5 °F /  -8.6 °C 30.18 in /  1021.9 hPa WNW 8.4 mph /  13.5 km/h 17.3 mph /  27.8 km/h 70 % 0.00 in /  0 mm
08:56 25.2 °F /  -3.8 °C 16.8 °F /  -8.4 °C 30.18 in /  1021.9 hPa NW 9.0 mph /  14.5 km/h 15.0 mph /  24.1 km/h 70 % 0.00 in /  0 mm
09:01 25.6 °F /  -3.6 °C 17.5 °F /  -8.1 °C 30.18 in /  1021.9 hPa WSW 8.3 mph /  13.4 km/h 11.5 mph /  18.5 km/h 71 % 0.00 in /  0 mm
09:06 26.1 °F /  -3.3 °C 17.0 °F /  -8.3 °C 30.17 in /  1021.6 hPa NW 9.7 mph /  15.6 km/h 16.1 mph /  25.9 km/h 68 % 0.00 in /  0 mm
09:11 26.4 °F /  -3.1 °C 17.6 °F /  -8 °C 30.17 in /  1021.6 hPa WSW 10.1 mph /  16.3 km/h 19.6 mph /  31.5 km/h 69 % 0.00 in /  0 mm
09:16 26.6 °F /  -3 °C 16.8 °F /  -8.4 °C 30.17 in /  1021.6 hPa West 5.1 mph /  8.2 km/h 10.4 mph /  16.7 km/h 66 % 0.00 in /  0 mm
09:21 27.0 °F /  -2.8 °C 17.8 °F /  -7.9 °C 30.17 in /  1021.6 hPa West 5.1 mph /  8.2 km/h 16.1 mph /  25.9 km/h 68 % 0.00 in /  0 mm
09:26 27.2 °F /  -2.7 °C 18.0 °F /  -7.8 °C 30.18 in /  1021.9 hPa WNW 5.8 mph /  9.3 km/h 10.4 mph /  16.7 km/h 68 % 0.00 in /  0 mm
09:31 27.2 °F /  -2.7 °C 17.3 °F /  -8.2 °C 30.17 in /  1021.6 hPa WSW 5.0 mph /  8 km/h 11.5 mph /  18.5 km/h 66 % 0.00 in /  0 mm
09:36 27.2 °F /  -2.7 °C 17.3 °F /  -8.2 °C 30.18 in /  1021.9 hPa WNW 13.1 mph /  21.1 km/h 20.7 mph /  33.3 km/h 66 % 0.00 in /  0 mm
09:41 27.2 °F /  -2.7 °C 17.7 °F /  -7.9 °C 30.18 in /  1021.9 hPa WSW 5.1 mph /  8.2 km/h 11.5 mph /  18.5 km/h 67 % 0.00 in /  0 mm
09:46 27.5 °F /  -2.5 °C 17.6 °F /  -8 °C 30.18 in /  1021.9 hPa WNW 7.3 mph /  11.7 km/h 19.6 mph /  31.5 km/h 66 % 0.00 in /  0 mm
09:51 28.0 °F /  -2.2 °C 18.1 °F /  -7.7 °C 30.17 in /  1021.6 hPa SW 7.7 mph /  12.4 km/h 18.0 mph /  29 km/h 66 % 0.00 in /  0 mm
09:56 28.5 °F /  -1.9 °C 18.6 °F /  -7.4 °C 30.18 in /  1021.9 hPa NNW 3.7 mph /  6 km/h 15.0 mph /  24.1 km/h 66 % 0.00 in /  0 mm
09:58 28.6 °F /  -1.9 °C 18.7 °F /  -7.4 °C 30.18 in /  1021.9 hPa WNW 3.8 mph /  6.1 km/h 6.9 mph /  11.1 km/h 66 % 0.00 in /  0 mm
10:03 28.9 °F /  -1.7 °C 18.6 °F /  -7.4 °C 30.18 in /  1021.9 hPa WNW 6.6 mph /  10.6 km/h 15.0 mph /  24.1 km/h 65 % 0.00 in /  0 mm
10:08 29.1 °F /  -1.6 °C 19.2 °F /  -7.1 °C 30.18 in /  1021.9 hPa West 8.3 mph /  13.4 km/h 12.7 mph /  20.4 km/h 66 % 0.00 in /  0 mm
10:13 29.3 °F /  -1.5 °C 18.6 °F /  -7.4 °C 30.18 in /  1021.9 hPa West 7.7 mph /  12.4 km/h 16.1 mph /  25.9 km/h 64 % 0.00 in /  0 mm
10:18 29.3 °F /  -1.5 °C 17.9 °F /  -7.8 °C 30.18 in /  1021.9 hPa SW 8.1 mph /  13 km/h 18.4 mph /  29.6 km/h 62 % 0.01 in /  0.25 mm
10:23 29.5 °F /  -1.4 °C 18.8 °F /  -7.3 °C 30.18 in /  1021.9 hPa WSW 6.6 mph /  10.6 km/h 11.5 mph /  18.5 km/h 64 % 0.02 in /  0.51 mm
10:28 29.9 °F /  -1.2 °C 19.9 °F /  -6.7 °C 30.18 in /  1021.9 hPa WSW 7.8 mph /  12.6 km/h 10.4 mph /  16.7 km/h 66 % 0.02 in /  0.51 mm
10:33 30.3 °F /  -0.9 °C 19.9 °F /  -6.7 °C 30.18 in /  1021.9 hPa West 7.0 mph /  11.3 km/h 11.5 mph /  18.5 km/h 65 % 0.03 in /  0.76 mm
10:38 30.6 °F /  -0.8 °C 18.7 °F /  -7.4 °C 30.18 in /  1021.9 hPa NW 8.5 mph /  13.7 km/h 12.7 mph /  20.4 km/h 61 % 0.03 in /  0.76 mm
10:43 31.0 °F /  -0.6 °C 19.9 °F /  -6.7 °C 30.18 in /  1021.9 hPa WSW 6.2 mph /  10 km/h 11.5 mph /  18.5 km/h 63 % 0.04 in /  1.02 mm
10:48 31.2 °F /  -0.4 °C 18.9 °F /  -7.3 °C 30.18 in /  1021.9 hPa NW 6.0 mph /  9.7 km/h 15.0 mph /  24.1 km/h 60 % 0.05 in /  1.27 mm
10:53 31.3 °F /  -0.4 °C 19.0 °F /  -7.2 °C 30.18 in /  1021.9 hPa NW 8.8 mph /  14.2 km/h 11.5 mph /  18.5 km/h 60 % 0.05 in /  1.27 mm
10:58 31.4 °F /  -0.3 °C 19.1 °F /  -7.2 °C 30.18 in /  1021.9 hPa WNW 7.1 mph /  11.4 km/h 16.1 mph /  25.9 km/h 60 % 0.06 in /  1.52 mm
11:03 31.7 °F /  -0.2 °C 19.0 °F /  -7.2 °C 30.18 in /  1021.9 hPa SW 8.0 mph /  12.9 km/h 17.3 mph /  27.8 km/h 59 % 0.06 in /  1.52 mm
11:08 31.6 °F /  -0.2 °C 19.7 °F /  -6.8 °C 30.18 in /  1021.9 hPa WSW 7.0 mph /  11.3 km/h 13.8 mph /  22.2 km/h 61 % 0.07 in /  1.78 mm
11:13 31.7 °F /  -0.2 °C 19.8 °F /  -6.8 °C 30.19 in /  1022.2 hPa West 8.4 mph /  13.5 km/h 14.0 mph /  22.5 km/h 61 % 0.07 in /  1.78 mm
11:18 31.7 °F /  -0.2 °C 19.4 °F /  -7 °C 30.18 in /  1021.9 hPa WNW 3.0 mph /  4.8 km/h 15.0 mph /  24.1 km/h 60 % 0.00 in /  0 mm
11:23 31.5 °F /  -0.3 °C 18.8 °F /  -7.3 °C 30.19 in /  1022.2 hPa West 8.0 mph /  12.9 km/h 20.0 mph /  32.2 km/h 59 % 0.00 in /  0 mm
11:28 31.6 °F /  -0.2 °C 19.7 °F /  -6.8 °C 30.19 in /  1022.2 hPa West 9.0 mph /  14.5 km/h 16.0 mph /  25.7 km/h 61 % 0.00 in /  0 mm
11:33 31.9 °F /  -0.1 °C 21.5 °F /  -5.8 °C 30.19 in /  1022.2 hPa NW 8.2 mph /  13.2 km/h 18.4 mph /  29.6 km/h 65 % 0.05 in /  1.27 mm
11:38 31.9 °F /  -0.1 °C 19.2 °F /  -7.1 °C 30.19 in /  1022.2 hPa WNW 8.0 mph /  12.9 km/h 20.0 mph /  32.2 km/h 59 % 0.00 in /  0 mm
11:43 31.8 °F /  -0.1 °C 19.5 °F /  -6.9 °C 30.19 in /  1022.2 hPa WNW 9.0 mph /  14.5 km/h 20.0 mph /  32.2 km/h 60 % 0.00 in /  0 mm
11:48 31.5 °F /  -0.3 °C 19.6 °F /  -6.9 °C 30.19 in /  1022.2 hPa WNW 9.0 mph /  14.5 km/h 21.0 mph /  33.8 km/h 61 % 0.00 in /  0 mm
11:53 31.3 °F /  -0.4 °C 19.0 °F /  -7.2 °C 30.19 in /  1022.2 hPa NW 8.5 mph /  13.7 km/h 11.5 mph /  18.5 km/h 60 % 0.03 in /  0.76 mm
11:58 31.1 °F /  -0.5 °C 19.2 °F /  -7.1 °C 30.19 in /  1022.2 hPa West 7.8 mph /  12.6 km/h 14.0 mph /  22.5 km/h 61 % 0.02 in /  0.51 mm
12:01 31.0 °F /  -0.6 °C 20.2 °F /  -6.6 °C 30.19 in /  1022.2 hPa WNW 6.6 mph /  10.6 km/h 11.5 mph /  18.5 km/h 64 % 0.02 in /  0.51 mm
12:06 30.8 °F /  -0.7 °C 18.9 °F /  -7.3 °C 30.19 in /  1022.2 hPa WSW 8.3 mph /  13.4 km/h 14.0 mph /  22.5 km/h 61 % 0.02 in /  0.51 mm
12:09 30.8 °F /  -0.7 °C 19.3 °F /  -7.1 °C 30.19 in /  1022.2 hPa NW 6.6 mph /  10.6 km/h 11.5 mph /  18.5 km/h 62 % 0.01 in /  0.25 mm
12:11 30.8 °F /  -0.7 °C 19.7 °F /  -6.8 °C 30.19 in /  1022.2 hPa WNW 6.7 mph /  10.8 km/h 12.7 mph /  20.4 km/h 63 % 0.01 in /  0.25 mm
12:16 30.9 °F /  -0.6 °C 19.8 °F /  -6.8 °C 30.19 in /  1022.2 hPa West 7.2 mph /  11.6 km/h 15.0 mph /  24.1 km/h 63 % 0.01 in /  0.25 mm
12:17 31.0 °F /  -0.6 °C 19.5 °F /  -6.9 °C 30.19 in /  1022.2 hPa WNW 4.7 mph /  7.6 km/h 15.0 mph /  24.1 km/h 62 % 0.01 in /  0.25 mm
12:22 31.4 °F /  -0.3 °C 19.9 °F /  -6.7 °C 30.19 in /  1022.2 hPa WNW 8.9 mph /  14.3 km/h 13.8 mph /  22.2 km/h 62 % 0.01 in /  0.25 mm
12:23 31.4 °F /  -0.3 °C 19.1 °F /  -7.2 °C 30.18 in /  1021.9 hPa WSW 6.9 mph /  11.1 km/h 13.8 mph /  22.2 km/h 60 % 0.00 in /  0 mm
12:28 31.7 °F /  -0.2 °C 20.5 °F /  -6.4 °C 30.18 in /  1021.9 hPa West 4.3 mph /  6.9 km/h 8.1 mph /  13 km/h 63 % 0.00 in /  0 mm
12:33 32.2 °F /  0.1 °C 21.4 °F /  -5.9 °C 30.19 in /  1022.2 hPa West 7.1 mph /  11.4 km/h 9.0 mph /  14.5 km/h 64 % 0.00 in /  0 mm
12:35 32.2 °F /  0.1 °C 21.0 °F /  -6.1 °C 30.19 in /  1022.2 hPa West 6.4 mph /  10.3 km/h 12.7 mph /  20.4 km/h 63 % 0.00 in /  0 mm
12:40 32.3 °F /  0.2 °C 20.3 °F /  -6.5 °C 30.19 in /  1022.2 hPa WSW 8.2 mph /  13.2 km/h 13.0 mph /  20.9 km/h 61 % 0.00 in /  0 mm
12:45 32.1 °F /  0.1 °C 21.3 °F /  -5.9 °C 30.18 in /  1021.9 hPa NW 5.5 mph /  8.9 km/h 11.0 mph /  17.7 km/h 64 % 0.00 in /  0 mm
12:50 31.9 °F /  -0.1 °C 21.1 °F /  -6.1 °C 30.18 in /  1021.9 hPa West 4.9 mph /  7.9 km/h 12.0 mph /  19.3 km/h 64 % 0.00 in /  0 mm
12:55 31.6 °F /  -0.2 °C 20.8 °F /  -6.2 °C 30.18 in /  1021.9 hPa West 7.7 mph /  12.4 km/h 11.5 mph /  18.5 km/h 64 % 0.00 in /  0 mm
13:00 31.6 °F /  -0.2 °C 20.1 °F /  -6.6 °C 30.17 in /  1021.6 hPa West 6.3 mph /  10.1 km/h 11.5 mph /  18.5 km/h 62 % 0.00 in /  0 mm
13:05 31.9 °F /  -0.1 °C 20.7 °F /  -6.3 °C 30.17 in /  1021.6 hPa West 5.9 mph /  9.5 km/h 11.5 mph /  18.5 km/h 63 % 0.00 in /  0 mm
13:10 32.0 °F /  0 °C 20.8 °F /  -6.2 °C 30.17 in /  1021.6 hPa WNW 5.1 mph /  8.2 km/h 11.0 mph /  17.7 km/h 63 % 0.00 in /  0 mm
13:15 32.4 °F /  0.2 °C 20.8 °F /  -6.2 °C 30.17 in /  1021.6 hPa WNW 5.8 mph /  9.3 km/h 10.4 mph /  16.7 km/h 62 % 0.00 in /  0 mm
13:20 32.7 °F /  0.4 °C 21.5 °F /  -5.8 °C 30.17 in /  1021.6 hPa WNW 6.5 mph /  10.5 km/h 10.4 mph /  16.7 km/h 63 % 0.00 in /  0 mm
13:25 33.0 °F /  0.6 °C 20.2 °F /  -6.6 °C 30.17 in /  1021.6 hPa NW 7.7 mph /  12.4 km/h 11.5 mph /  18.5 km/h 59 % 0.00 in /  0 mm
13:30 33.3 °F /  0.7 °C 21.3 °F /  -5.9 °C 30.17 in /  1021.6 hPa NW 7.6 mph /  12.2 km/h 17.3 mph /  27.8 km/h 61 % 0.00 in /  0 mm
13:35 33.4 °F /  0.8 °C 21.4 °F /  -5.9 °C 30.17 in /  1021.6 hPa NW 9.8 mph /  15.8 km/h 12.7 mph /  20.4 km/h 61 % 0.00 in /  0 mm
13:40 33.4 °F /  0.8 °C 21.4 °F /  -5.9 °C 30.17 in /  1021.6 hPa WNW 6.0 mph /  9.7 km/h 11.5 mph /  18.5 km/h 61 % 0.00 in /  0 mm
13:45 33.3 °F /  0.7 °C 20.9 °F /  -6.2 °C 30.16 in /  1021.2 hPa West 6.5 mph /  10.5 km/h 19.6 mph /  31.5 km/h 60 % 0.00 in /  0 mm
13:51 33.2 °F /  0.7 °C 20.0 °F /  -6.7 °C 30.16 in /  1021.2 hPa NW 8.4 mph /  13.5 km/h 15.0 mph /  24.1 km/h 58 % 0.00 in /  0 mm
13:56 33.2 °F /  0.7 °C 20.8 °F /  -6.2 °C 30.16 in /  1021.2 hPa WNW 8.8 mph /  14.2 km/h 16.1 mph /  25.9 km/h 60 % 0.00 in /  0 mm
14:01 33.0 °F /  0.6 °C 21.0 °F /  -6.1 °C 30.16 in /  1021.2 hPa WNW 5.4 mph /  8.7 km/h 13.8 mph /  22.2 km/h 61 % 0.00 in /  0 mm
14:06 33.0 °F /  0.6 °C 19.8 °F /  -6.8 °C 30.16 in /  1021.2 hPa WSW 7.1 mph /  11.4 km/h 12.7 mph /  20.4 km/h 58 % 0.00 in /  0 mm
14:11 33.0 °F /  0.6 °C 20.2 °F /  -6.6 °C 30.17 in /  1021.6 hPa NNW 6.6 mph /  10.6 km/h 11.5 mph /  18.5 km/h 59 % 0.00 in /  0 mm
14:16 33.0 °F /  0.6 °C 21.0 °F /  -6.1 °C 30.16 in /  1021.2 hPa NW 6.2 mph /  10 km/h 16.1 mph /  25.9 km/h 61 % 0.00 in /  0 mm
14:21 33.0 °F /  0.6 °C 20.6 °F /  -6.3 °C 30.16 in /  1021.2 hPa NW 7.7 mph /  12.4 km/h 10.0 mph /  16.1 km/h 60 % 0.00 in /  0 mm
14:26 33.0 °F /  0.6 °C 21.0 °F /  -6.1 °C 30.16 in /  1021.2 hPa NW 3.9 mph /  6.3 km/h 8.0 mph /  12.9 km/h 61 % 0.00 in /  0 mm
14:31 33.0 °F /  0.6 °C 22.1 °F /  -5.5 °C 30.16 in /  1021.2 hPa West 6.4 mph /  10.3 km/h 10.0 mph /  16.1 km/h 64 % 0.00 in /  0 mm
14:32 33.0 °F /  0.6 °C 21.4 °F /  -5.9 °C 30.16 in /  1021.2 hPa NNW 4.8 mph /  7.7 km/h 10.4 mph /  16.7 km/h 62 % 0.00 in /  0 mm
14:37 32.9 °F /  0.5 °C 22.4 °F /  -5.3 °C 30.16 in /  1021.2 hPa WNW 6.0 mph /  9.7 km/h 11.5 mph /  18.5 km/h 65 % 0.00 in /  0 mm
14:42 32.7 °F /  0.4 °C 21.5 °F /  -5.8 °C 30.16 in /  1021.2 hPa WNW 6.0 mph /  9.7 km/h 11.5 mph /  18.5 km/h 63 % 0.00 in /  0 mm
14:47 32.4 °F /  0.2 °C 21.6 °F /  -5.8 °C 30.16 in /  1021.2 hPa West 3.3 mph /  5.3 km/h 11.5 mph /  18.5 km/h 64 % 0.00 in /  0 mm
14:52 32.2 °F /  0.1 °C 21.0 °F /  -6.1 °C 30.17 in /  1021.6 hPa NW 4.4 mph /  7.1 km/h 13.0 mph /  20.9 km/h 63 % 0.00 in /  0 mm
14:57 31.9 °F /  -0.1 °C 20.3 °F /  -6.5 °C 30.16 in /  1021.2 hPa WNW 8.0 mph /  12.9 km/h 12.7 mph /  20.4 km/h 62 % 0.00 in /  0 mm
15:03 31.6 °F /  -0.2 °C 19.7 °F /  -6.8 °C 30.17 in /  1021.6 hPa West 6.4 mph /  10.3 km/h 13.8 mph /  22.2 km/h 61 % 0.00 in /  0 mm
15:08 31.4 °F /  -0.3 °C 19.9 °F /  -6.7 °C 30.17 in /  1021.6 hPa WSW 6.8 mph /  10.9 km/h 13.0 mph /  20.9 km/h 62 % 0.00 in /  0 mm
15:13 31.2 °F /  -0.4 °C 19.7 °F /  -6.8 °C 30.17 in /  1021.6 hPa WNW 7.6 mph /  12.2 km/h 10.4 mph /  16.7 km/h 62 % 0.00 in /  0 mm
15:14 31.2 °F /  -0.4 °C 20.1 °F /  -6.6 °C 30.17 in /  1021.6 hPa West 7.3 mph /  11.7 km/h 12.0 mph /  19.3 km/h 63 % 0.00 in /  0 mm
15:19 31.1 °F /  -0.5 °C 20.7 °F /  -6.3 °C 30.17 in /  1021.6 hPa WNW 6.5 mph /  10.5 km/h 6.9 mph /  11.1 km/h 65 % 0.00 in /  0 mm
15:24 31.0 °F /  -0.6 °C 19.9 °F /  -6.7 °C 30.17 in /  1021.6 hPa WNW 2.7 mph /  4.3 km/h 5.0 mph /  8 km/h 63 % 0.00 in /  0 mm
15:29 30.9 °F /  -0.6 °C 19.8 °F /  -6.8 °C 30.17 in /  1021.6 hPa WNW 5.2 mph /  8.4 km/h 8.1 mph /  13 km/h 63 % 0.00 in /  0 mm
15:34 30.9 °F /  -0.6 °C 20.1 °F /  -6.6 °C 30.17 in /  1021.6 hPa West 5.5 mph /  8.9 km/h 8.0 mph /  12.9 km/h 64 % 0.00 in /  0 mm
15:39 30.8 °F /  -0.7 °C 20.0 °F /  -6.7 °C 30.17 in /  1021.6 hPa WNW 3.1 mph /  5 km/h 5.0 mph /  8 km/h 64 % 0.00 in /  0 mm
15:44 30.8 °F /  -0.7 °C 20.4 °F /  -6.4 °C 30.17 in /  1021.6 hPa NNW 4.0 mph /  6.4 km/h 6.9 mph /  11.1 km/h 65 % 0.00 in /  0 mm
15:49 30.8 °F /  -0.7 °C 20.4 °F /  -6.4 °C 30.17 in /  1021.6 hPa NW 2.9 mph /  4.7 km/h 3.5 mph /  5.6 km/h 65 % 0.00 in /  0 mm
15:54 30.8 °F /  -0.7 °C 20.8 °F /  -6.2 °C 30.17 in /  1021.6 hPa WNW 4.3 mph /  6.9 km/h 6.9 mph /  11.1 km/h 66 % 0.00 in /  0 mm
15:59 30.7 °F /  -0.7 °C 20.0 °F /  -6.7 °C 30.16 in /  1021.2 hPa WNW 3.0 mph /  4.8 km/h 8.1 mph /  13 km/h 64 % 0.00 in /  0 mm
16:04 30.7 °F /  -0.7 °C 20.3 °F /  -6.5 °C 30.17 in /  1021.6 hPa WNW 3.9 mph /  6.3 km/h 8.1 mph /  13 km/h 65 % 0.00 in /  0 mm
16:09 30.6 °F /  -0.8 °C 20.6 °F /  -6.3 °C 30.16 in /  1021.2 hPa WNW 3.5 mph /  5.6 km/h 6.9 mph /  11.1 km/h 66 % 0.00 in /  0 mm
16:14 30.6 °F /  -0.8 °C 20.6 °F /  -6.3 °C 30.16 in /  1021.2 hPa West 1.4 mph /  2.3 km/h 3.5 mph /  5.6 km/h 66 % 0.00 in /  0 mm
16:19 30.6 °F /  -0.8 °C 21.6 °F /  -5.8 °C 30.15 in /  1020.9 hPa WNW 1.1 mph /  1.8 km/h 4.6 mph /  7.4 km/h 69 % 0.00 in /  0 mm
16:25 30.6 °F /  -0.8 °C 21.6 °F /  -5.8 °C 30.16 in /  1021.2 hPa WNW 2.3 mph /  3.7 km/h 4.6 mph /  7.4 km/h 69 % 0.00 in /  0 mm
16:30 30.5 °F /  -0.8 °C 20.8 °F /  -6.2 °C 30.16 in /  1021.2 hPa WNW 3.9 mph /  6.3 km/h 4.6 mph /  7.4 km/h 67 % 0.00 in /  0 mm
16:35 30.5 °F /  -0.8 °C 20.8 °F /  -6.2 °C 30.16 in /  1021.2 hPa West 3.6 mph /  5.8 km/h 4.6 mph /  7.4 km/h 67 % 0.00 in /  0 mm
16:40 30.4 °F /  -0.9 °C 20.7 °F /  -6.3 °C 30.16 in /  1021.2 hPa West 4.1 mph /  6.6 km/h 7.0 mph /  11.3 km/h 67 % 0.00 in /  0 mm
16:45 30.4 °F /  -0.9 °C 20.0 °F /  -6.7 °C 30.16 in /  1021.2 hPa West 1.4 mph /  2.3 km/h 4.6 mph /  7.4 km/h 65 % 0.00 in /  0 mm
16:50 30.4 °F /  -0.9 °C 20.4 °F /  -6.4 °C 30.16 in /  1021.2 hPa WNW 2.2 mph /  3.5 km/h 5.0 mph /  8 km/h 66 % 0.00 in /  0 mm
16:55 30.3 °F /  -0.9 °C 21.0 °F /  -6.1 °C 30.17 in /  1021.6 hPa WNW 0.3 mph /  0.5 km/h 3.5 mph /  5.6 km/h 68 % 0.00 in /  0 mm
17:00 30.3 °F /  -0.9 °C 20.3 °F /  -6.5 °C 30.17 in /  1021.6 hPa WSW 1.2 mph /  1.9 km/h 4.6 mph /  7.4 km/h 66 % 0.00 in /  0 mm
17:05 30.1 °F /  -1.1 °C 19.7 °F /  -6.8 °C 30.17 in /  1021.6 hPa West 2.2 mph /  3.5 km/h 3.5 mph /  5.6 km/h 65 % 0.00 in /  0 mm
17:10 30.1 °F /  -1.1 °C 19.4 °F /  -7 °C 30.17 in /  1021.6 hPa WSW 4.1 mph /  6.6 km/h 6.9 mph /  11.1 km/h 64 % 0.00 in /  0 mm
17:15 29.9 °F /  -1.2 °C 20.3 °F /  -6.5 °C 30.17 in /  1021.6 hPa SW 1.1 mph /  1.8 km/h 3.5 mph /  5.6 km/h 67 % 0.00 in /  0 mm
17:20 29.8 °F /  -1.2 °C 19.8 °F /  -6.8 °C 30.17 in /  1021.6 hPa SW 1.5 mph /  2.4 km/h 4.0 mph /  6.4 km/h 66 % 0.00 in /  0 mm
17:25 29.6 °F /  -1.3 °C 19.3 °F /  -7.1 °C 30.17 in /  1021.6 hPa WSW 3.2 mph /  5.1 km/h 4.0 mph /  6.4 km/h 65 % 0.00 in /  0 mm
17:30 29.5 °F /  -1.4 °C 19.2 °F /  -7.1 °C 30.17 in /  1021.6 hPa WSW 2.9 mph /  4.7 km/h 4.0 mph /  6.4 km/h 65 % 0.00 in /  0 mm
17:35 29.4 °F /  -1.4 °C 19.1 °F /  -7.2 °C 30.17 in /  1021.6 hPa WSW 3.2 mph /  5.1 km/h 4.6 mph /  7.4 km/h 65 % 0.00 in /  0 mm
17:40 29.3 °F /  -1.5 °C 19.3 °F /  -7.1 °C 30.17 in /  1021.6 hPa SW 3.8 mph /  6.1 km/h 5.8 mph /  9.3 km/h 66 % 0.00 in /  0 mm
17:45 29.1 °F /  -1.6 °C 19.2 °F /  -7.1 °C 30.17 in /  1021.6 hPa WSW 2.1 mph /  3.4 km/h 3.5 mph /  5.6 km/h 66 % 0.00 in /  0 mm
17:50 29.0 °F /  -1.7 °C 19.1 °F /  -7.2 °C 30.17 in /  1021.6 hPa SW 1.4 mph /  2.3 km/h 3.5 mph /  5.6 km/h 66 % 0.00 in /  0 mm
17:56 28.9 °F /  -1.7 °C 19.3 °F /  -7.1 °C 30.17 in /  1021.6 hPa WSW 1.5 mph /  2.4 km/h 3.5 mph /  5.6 km/h 67 % 0.00 in /  0 mm
18:01 28.7 °F /  -1.8 °C 19.1 °F /  -7.2 °C 30.17 in /  1021.6 hPa WSW 3.0 mph /  4.8 km/h 4.6 mph /  7.4 km/h 67 % 0.00 in /  0 mm
18:06 28.5 °F /  -1.9 °C 18.9 °F /  -7.3 °C 30.17 in /  1021.6 hPa SW 2.0 mph /  3.2 km/h 3.0 mph /  4.8 km/h 67 % 0.00 in /  0 mm
18:11 28.4 °F /  -2 °C 19.2 °F /  -7.1 °C 30.17 in /  1021.6 hPa SW 3.9 mph /  6.3 km/h 5.8 mph /  9.3 km/h 68 % 0.00 in /  0 mm
18:16 28.3 °F /  -2.1 °C 19.1 °F /  -7.2 °C 30.17 in /  1021.6 hPa SW 1.1 mph /  1.8 km/h 3.5 mph /  5.6 km/h 68 % 0.00 in /  0 mm
18:21 28.2 °F /  -2.1 °C 19.3 °F /  -7.1 °C 30.17 in /  1021.6 hPa SW 1.6 mph /  2.6 km/h 4.6 mph /  7.4 km/h 69 % 0.00 in /  0 mm
18:26 28.1 °F /  -2.2 °C 18.9 °F /  -7.3 °C 30.17 in /  1021.6 hPa SW 0.3 mph /  0.5 km/h 2.3 mph /  3.7 km/h 68 % 0.00 in /  0 mm
18:31 28.0 °F /  -2.2 °C 19.5 °F /  -6.9 °C 30.16 in /  1021.2 hPa SW 3.4 mph /  5.5 km/h 4.6 mph /  7.4 km/h 70 % 0.00 in /  0 mm
18:36 28.0 °F /  -2.2 °C 19.5 °F /  -6.9 °C 30.16 in /  1021.2 hPa SW 0.5 mph /  0.8 km/h 3.5 mph /  5.6 km/h 70 % 0.00 in /  0 mm
18:41 27.9 °F /  -2.3 °C 19.4 °F /  -7 °C 30.16 in /  1021.2 hPa SW 0.8 mph /  1.3 km/h 3.5 mph /  5.6 km/h 70 % 0.00 in /  0 mm
18:46 27.9 °F /  -2.3 °C 19.4 °F /  -7 °C 30.16 in /  1021.2 hPa SW 1.0 mph /  1.6 km/h 3.5 mph /  5.6 km/h 70 % 0.00 in /  0 mm
18:51 27.8 °F /  -2.3 °C 19.6 °F /  -6.9 °C 30.16 in /  1021.2 hPa SW 1.7 mph /  2.7 km/h 4.0 mph /  6.4 km/h 71 % 0.00 in /  0 mm
18:56 27.7 °F /  -2.4 °C 19.5 °F /  -6.9 °C 30.15 in /  1020.9 hPa WSW 1.6 mph /  2.6 km/h 3.5 mph /  5.6 km/h 71 % 0.00 in /  0 mm
19:01 27.7 °F /  -2.4 °C 19.5 °F /  -6.9 °C 30.15 in /  1020.9 hPa SSW 2.5 mph /  4 km/h 3.5 mph /  5.6 km/h 71 % 0.00 in /  0 mm
19:06 27.7 °F /  -2.4 °C 19.5 °F /  -6.9 °C 30.15 in /  1020.9 hPa SW 3.6 mph /  5.8 km/h 6.9 mph /  11.1 km/h 71 % 0.00 in /  0 mm
19:11 27.7 °F /  -2.4 °C 19.5 °F /  -6.9 °C 30.16 in /  1021.2 hPa SW 2.5 mph /  4 km/h 3.5 mph /  5.6 km/h 71 % 0.00 in /  0 mm
19:17 27.6 °F /  -2.4 °C 19.8 °F /  -6.8 °C 30.16 in /  1021.2 hPa SSW 2.1 mph /  3.4 km/h 5.8 mph /  9.3 km/h 72 % 0.00 in /  0 mm
19:22 27.7 °F /  -2.4 °C 19.8 °F /  -6.8 °C 30.15 in /  1020.9 hPa SW 3.1 mph /  5 km/h 5.0 mph /  8 km/h 72 % 0.00 in /  0 mm
19:27 27.7 °F /  -2.4 °C 19.8 °F /  -6.8 °C 30.14 in /  1020.5 hPa SW 5.4 mph /  8.7 km/h 8.1 mph /  13 km/h 72 % 0.00 in /  0 mm
19:32 27.8 °F /  -2.3 °C 20.3 °F /  -6.5 °C 30.14 in /  1020.5 hPa SW 2.1 mph /  3.4 km/h 3.5 mph /  5.6 km/h 73 % 0.00 in /  0 mm
19:37 27.8 °F /  -2.3 °C 19.9 °F /  -6.7 °C 30.14 in /  1020.5 hPa SW 5.0 mph /  8 km/h 6.9 mph /  11.1 km/h 72 % 0.00 in /  0 mm
19:42 27.9 °F /  -2.3 °C 20.4 °F /  -6.4 °C 30.14 in /  1020.5 hPa WSW 3.6 mph /  5.8 km/h 6.0 mph /  9.7 km/h 73 % 0.00 in /  0 mm
19:47 27.9 °F /  -2.3 °C 20.0 °F /  -6.7 °C 30.13 in /  1020.2 hPa WSW 3.3 mph /  5.3 km/h 6.9 mph /  11.1 km/h 72 % 0.00 in /  0 mm
19:52 27.9 °F /  -2.3 °C 20.0 °F /  -6.7 °C 30.13 in /  1020.2 hPa SSW 1.9 mph /  3.1 km/h 3.5 mph /  5.6 km/h 72 % 0.00 in /  0 mm
19:57 27.9 °F /  -2.3 °C 20.4 °F /  -6.4 °C 30.13 in /  1020.2 hPa West 2.7 mph /  4.3 km/h 5.0 mph /  8 km/h 73 % 0.00 in /  0 mm
20:02 28.0 °F /  -2.2 °C 20.1 °F /  -6.6 °C 30.14 in /  1020.5 hPa WSW 3.7 mph /  6 km/h 4.6 mph /  7.4 km/h 72 % 0.00 in /  0 mm
20:07 28.0 °F /  -2.2 °C 20.8 °F /  -6.2 °C 30.15 in /  1020.9 hPa WSW 4.6 mph /  7.4 km/h 5.8 mph /  9.3 km/h 74 % 0.00 in /  0 mm
20:12 28.0 °F /  -2.2 °C 20.5 °F /  -6.4 °C 30.14 in /  1020.5 hPa WSW 2.2 mph /  3.5 km/h 8.1 mph /  13 km/h 73 % 0.00 in /  0 mm
20:17 28.0 °F /  -2.2 °C 20.5 °F /  -6.4 °C 30.13 in /  1020.2 hPa SSW 4.9 mph /  7.9 km/h 6.9 mph /  11.1 km/h 73 % 0.00 in /  0 mm
20:22 28.1 °F /  -2.2 °C 20.2 °F /  -6.6 °C 30.13 in /  1020.2 hPa WSW 5.1 mph /  8.2 km/h 6.9 mph /  11.1 km/h 72 % 0.00 in /  0 mm
20:27 28.1 °F /  -2.2 °C 20.6 °F /  -6.3 °C 30.14 in /  1020.5 hPa SW 2.4 mph /  3.9 km/h 5.8 mph /  9.3 km/h 73 % 0.00 in /  0 mm
20:32 28.1 °F /  -2.2 °C 20.2 °F /  -6.6 °C 30.13 in /  1020.2 hPa SW 2.9 mph /  4.7 km/h 4.6 mph /  7.4 km/h 72 % 0.00 in /  0 mm
20:37 28.1 °F /  -2.2 °C 20.2 °F /  -6.6 °C 30.13 in /  1020.2 hPa SW 1.3 mph /  2.1 km/h 4.6 mph /  7.4 km/h 72 % 0.00 in /  0 mm
20:42 28.1 °F /  -2.2 °C 20.6 °F /  -6.3 °C 30.13 in /  1020.2 hPa WSW 1.1 mph /  1.8 km/h 4.6 mph /  7.4 km/h 73 % 0.00 in /  0 mm
20:47 28.2 °F /  -2.1 °C 20.7 °F /  -6.3 °C 30.13 in /  1020.2 hPa SW 2.5 mph /  4 km/h 5.0 mph /  8 km/h 73 % 0.00 in /  0 mm
20:52 28.2 °F /  -2.1 °C 20.7 °F /  -6.3 °C 30.13 in /  1020.2 hPa WSW 2.1 mph /  3.4 km/h 2.3 mph /  3.7 km/h 73 % 0.00 in /  0 mm
20:57 28.2 °F /  -2.1 °C 20.7 °F /  -6.3 °C 30.12 in /  1019.9 hPa SW 3.3 mph /  5.3 km/h 4.6 mph /  7.4 km/h 73 % 0.00 in /  0 mm
21:02 28.2 °F /  -2.1 °C 20.7 °F /  -6.3 °C 30.12 in /  1019.9 hPa WSW 4.2 mph /  6.8 km/h 4.2 mph /  6.8 km/h 73 % 0.00 in /  0 mm
21:07 28.2 °F /  -2.1 °C 21.0 °F /  -6.1 °C 30.13 in /  1020.2 hPa SW 3.0 mph /  4.8 km/h 8.1 mph /  13 km/h 74 % 0.00 in /  0 mm
21:12 28.2 °F /  -2.1 °C 20.7 °F /  -6.3 °C 30.12 in /  1019.9 hPa SW 2.2 mph /  3.5 km/h 3.5 mph /  5.6 km/h 73 % 0.00 in /  0 mm
21:17 28.2 °F /  -2.1 °C 20.7 °F /  -6.3 °C 30.12 in /  1019.9 hPa SSW 2.9 mph /  4.7 km/h 6.9 mph /  11.1 km/h 73 % 0.00 in /  0 mm
21:23 28.2 °F /  -2.1 °C 20.7 °F /  -6.3 °C 30.12 in /  1019.9 hPa SW 4.0 mph /  6.4 km/h 4.6 mph /  7.4 km/h 73 % 0.00 in /  0 mm
21:28 28.2 °F /  -2.1 °C 20.7 °F /  -6.3 °C 30.12 in /  1019.9 hPa WSW 1.5 mph /  2.4 km/h 3.5 mph /  5.6 km/h 73 % 0.00 in /  0 mm
21:33 28.2 °F /  -2.1 °C 20.7 °F /  -6.3 °C 30.12 in /  1019.9 hPa WSW 1.8 mph /  2.9 km/h 3.5 mph /  5.6 km/h 73 % 0.00 in /  0 mm
21:38 28.2 °F /  -2.1 °C 21.0 °F /  -6.1 °C 30.11 in /  1019.5 hPa Calm   1.2 mph /  1.9 km/h 74 % 0.00 in /  0 mm
21:43 28.2 °F /  -2.1 °C 21.3 °F /  -5.9 °C 30.12 in /  1019.9 hPa WSW 1.4 mph /  2.3 km/h 2.3 mph /  3.7 km/h 75 % 0.00 in /  0 mm
21:48 28.2 °F /  -2.1 °C 21.3 °F /  -5.9 °C 30.12 in /  1019.9 hPa SW 2.1 mph /  3.4 km/h 4.6 mph /  7.4 km/h 75 % 0.00 in /  0 mm
21:53 28.2 °F /  -2.1 °C 21.0 °F /  -6.1 °C 30.11 in /  1019.5 hPa SW 1.7 mph /  2.7 km/h 3.5 mph /  5.6 km/h 74 % 0.00 in /  0 mm
21:58 28.2 °F /  -2.1 °C 21.0 °F /  -6.1 °C 30.11 in /  1019.5 hPa SW 0.6 mph /  1 km/h 2.3 mph /  3.7 km/h 74 % 0.00 in /  0 mm
22:03 28.2 °F /  -2.1 °C 21.0 °F /  -6.1 °C 30.12 in /  1019.9 hPa SW 1.3 mph /  2.1 km/h 3.5 mph /  5.6 km/h 74 % 0.00 in /  0 mm
22:08 28.2 °F /  -2.1 °C 21.3 °F /  -5.9 °C 30.12 in /  1019.9 hPa SW 1.2 mph /  1.9 km/h 2.3 mph /  3.7 km/h 75 % 0.00 in /  0 mm
22:13 28.2 °F /  -2.1 °C 21.0 °F /  -6.1 °C 30.12 in /  1019.9 hPa Calm     74 % 0.00 in /  0 mm
22:18 28.2 °F /  -2.1 °C 21.3 °F /  -5.9 °C 30.12 in /  1019.9 hPa SW 0.3 mph /  0.5 km/h 1.2 mph /  1.9 km/h 75 % 0.00 in /  0 mm
22:23 28.2 °F /  -2.1 °C 21.3 °F /  -5.9 °C 30.12 in /  1019.9 hPa SW 1.6 mph /  2.6 km/h 2.3 mph /  3.7 km/h 75 % 0.00 in /  0 mm
22:28 28.2 °F /  -2.1 °C 21.0 °F /  -6.1 °C 30.12 in /  1019.9 hPa SW 0.2 mph /  0.3 km/h 2.0 mph /  3.2 km/h 74 % 0.00 in /  0 mm
22:33 28.2 °F /  -2.1 °C 21.3 °F /  -5.9 °C 30.13 in /  1020.2 hPa SW 3.6 mph /  5.8 km/h 4.6 mph /  7.4 km/h 75 % 0.00 in /  0 mm
22:38 28.2 °F /  -2.1 °C 21.0 °F /  -6.1 °C 30.12 in /  1019.9 hPa Calm     74 % 0.00 in /  0 mm
22:43 28.2 °F /  -2.1 °C 21.0 °F /  -6.1 °C 30.12 in /  1019.9 hPa WSW 2.0 mph /  3.2 km/h 9.0 mph /  14.5 km/h 74 % 0.00 in /  0 mm
22:48 28.2 °F /  -2.1 °C 21.0 °F /  -6.1 °C 30.12 in /  1019.9 hPa SW 6.0 mph /  9.7 km/h 9.0 mph /  14.5 km/h 74 % 0.00 in /  0 mm
22:53 28.2 °F /  -2.1 °C 21.3 °F /  -5.9 °C 30.13 in /  1020.2 hPa SW 7.0 mph /  11.3 km/h 12.0 mph /  19.3 km/h 75 % 0.00 in /  0 mm
22:58 28.2 °F /  -2.1 °C 21.6 °F /  -5.8 °C 30.12 in /  1019.9 hPa SW 2.0 mph /  3.2 km/h 4.6 mph /  7.4 km/h 76 % 0.00 in /  0 mm
23:03 28.2 °F /  -2.1 °C 21.9 °F /  -5.6 °C 30.12 in /  1019.9 hPa WSW 4.9 mph /  7.9 km/h 8.1 mph /  13 km/h 77 % 0.00 in /  0 mm
23:08 28.1 °F /  -2.2 °C 21.8 °F /  -5.7 °C 30.12 in /  1019.9 hPa SW 3.0 mph /  4.8 km/h 8.0 mph /  12.9 km/h 77 % 0.00 in /  0 mm
23:13 28.0 °F /  -2.2 °C 21.7 °F /  -5.7 °C 30.12 in /  1019.9 hPa WSW 4.1 mph /  6.6 km/h 6.9 mph /  11.1 km/h 77 % 0.00 in /  0 mm
23:18 28.0 °F /  -2.2 °C 21.7 °F /  -5.7 °C 30.12 in /  1019.9 hPa WSW 3.0 mph /  4.8 km/h 5.8 mph /  9.3 km/h 77 % 0.00 in /  0 mm
23:23 27.9 °F /  -2.3 °C 22.0 °F /  -5.6 °C 30.12 in /  1019.9 hPa Calm   3.0 mph /  4.8 km/h 78 % 0.00 in /  0 mm
23:28 27.9 °F /  -2.3 °C 21.9 °F /  -5.6 °C 30.12 in /  1019.9 hPa Calm   3.0 mph /  4.8 km/h 78 % 0.00 in /  0 mm
23:33 27.9 °F /  -2.3 °C 22.2 °F /  -5.4 °C 30.12 in /  1019.9 hPa Calm   3.0 mph /  4.8 km/h 79 % 0.00 in /  0 mm
23:38 27.9 °F /  -2.3 °C 22.2 °F /  -5.4 °C 30.12 in /  1019.9 hPa WSW 1.0 mph /  1.6 km/h 2.0 mph /  3.2 km/h 79 % 0.00 in /  0 mm
23:43 27.9 °F /  -2.3 °C 22.2 °F /  -5.4 °C 30.12 in /  1019.9 hPa Calm     79 % 0.00 in /  0 mm
23:48 27.9 °F /  -2.3 °C 22.5 °F /  -5.3 °C 30.12 in /  1019.9 hPa Calm   4.0 mph /  6.4 km/h 80 % 0.00 in /  0 mm
23:53 27.9 °F /  -2.3 °C 22.5 °F /  -5.3 °C 30.11 in /  1019.5 hPa Calm   1.0 mph /  1.6 km/h 80 % 0.00 in /  0 mm
23:58 27.9 °F /  -2.3 °C 22.8 °F /  -5.1 °C 30.11 in /  1019.5 hPa WSW 1.2 mph /  1.9 km/h 1.2 mph /  1.9 km/h 81 % 0.00 in /  0 mm
Crab Meadow Weather
Compliments of Weather Underground - 3 mb

Script developed by  Jim McMurry - jmcmurry@mwt.net Adapted for the template by  Wim van der Kuil - Leuven-Template.eu

Astronomy: The Sun is around 4.5 billion years old.